Bristol, Tennessee
Current Conditions -  °F | °C
As of 1:55 PM on Friday 31 Oct 2014 (Local Time) from KVJI Reporting Station
Light Rain Light Rain  
Wind Chill: 47°   Ceiling: 3700
Heat Index: 47°   Visibility: 10mi
Dew Point: 40°   Wind: 3mph
Humidity: 78%   Direction: 320°NW
Pressure: 29.89"   Gusts: NA
Location:  36.59°N, 82.22°W
Report Text: KVJI 311755Z AUTO 32003KT 10SM -RA OVC037 08/05 A2989 RMK AO2 T00820046 10108 20021
Loading
Personal Weather Stations






























Interactive Weather Map New forecast layout! Learn more

10-Day Weather Forecast

Advertisements
Track Severe Weather on mobile